Time;durP1;ratioP1;P1;durP2;ratioP2;P2;SDS_P1;SDS_P2;PMS_P1;PMS_P2;Temp;Humidity;BMP_temperature;BMP_pressure;BME280_temperature;BME280_humidity;BME280_pressure;Samples;Min_cycle;Max_cycle;Signal;HPM_P1;HPM_P2
2021/03/27 00:00:36;;;;;;;7.57;6.87;;;14.70;27.00;;;;;;4995224;28;20570;-67
2021/03/27 00:03:04;;;;;;;7.30;6.70;;;14.80;27.00;;;;;;4995073;28;20436;-66
2021/03/27 00:05:40;;;;;;;7.20;6.60;;;14.90;27.90;;;;;;4994980;28;20405;-66
2021/03/27 00:08:18;;;;;;;7.50;6.77;;;14.70;28.40;;;;;;4994703;28;20853;-68
2021/03/27 00:11:00;;;;;;;7.97;6.63;;;14.50;28.80;;;;;;4995263;28;20409;-66
2021/03/27 00:13:32;;;;;;;7.47;6.77;;;14.30;29.30;;;;;;4990850;28;22129;-67
2021/03/27 00:16:25;;;;;;;6.93;6.13;;;14.50;29.50;;;;;;4981799;28;20428;-68
2021/03/27 00:19:12;;;;;;;7.43;6.70;;;14.40;29.80;;;;;;4984203;28;20425;-66
2021/03/27 00:21:42;;;;;;;7.27;6.57;;;14.20;30.80;;;;;;4979783;28;20464;-67
2021/03/27 00:24:11;;;;;;;6.77;6.27;;;14.20;30.10;;;;;;4994727;28;20429;-67
2021/03/27 00:26:43;;;;;;;6.80;6.20;;;14.30;29.90;;;;;;4993665;28;20409;-66
2021/03/27 00:29:18;;;;;;;6.33;5.80;;;14.20;29.90;;;;;;4993662;28;20413;-66
2021/03/27 00:32:03;;;;;;;5.13;4.73;;;14.20;29.70;;;;;;4994726;28;20428;-67
2021/03/27 00:34:32;;;;;;;6.47;5.97;;;14.20;30.00;;;;;;4991015;28;20748;-66
2021/03/27 00:37:02;;;;;;;5.33;4.93;;;14.00;30.40;;;;;;4975008;28;20449;-70
2021/03/27 00:39:41;;;;;;;6.13;5.63;;;13.80;31.10;;;;;;4974772;28;20478;-66
2021/03/27 00:42:11;;;;;;;5.10;4.70;;;13.80;31.70;;;;;;4975714;28;20442;-67
2021/03/27 00:44:45;;;;;;;6.53;5.93;;;13.80;32.00;;;;;;4974852;28;20417;-66
2021/03/27 00:47:14;;;;;;;6.57;5.97;;;13.70;32.20;;;;;;4974156;28;20410;-67
2021/03/27 00:50:01;;;;;;;6.70;6.00;;;13.90;32.10;;;;;;4974937;28;20501;-66
2021/03/27 00:52:33;;;;;;;5.87;5.27;;;13.90;32.40;;;;;;4978482;28;20528;-66
2021/03/27 00:55:13;;;;;;;6.90;5.30;;;13.80;32.70;;;;;;4994314;28;20422;-67
2021/03/27 00:57:55;;;;;;;4.90;4.50;;;13.80;32.50;;;;;;4993467;28;20404;-69
2021/03/27 01:00:36;;;;;;;6.00;5.50;;;13.80;32.40;;;;;;4993758;28;20445;-67
2021/03/27 01:03:28;;;;;;;5.63;5.23;;;13.90;32.20;;;;;;4981435;28;20539;-66
2021/03/27 01:05:55;;;;;;;5.27;4.87;;;13.90;32.60;;;;;;4974191;28;20398;-66
2021/03/27 01:08:23;;;;;;;7.00;5.17;;;13.80;32.20;;;;;;4973987;28;20898;-66
2021/03/27 01:10:56;;;;;;;5.87;4.87;;;13.90;31.80;;;;;;4974371;28;20441;-68
2021/03/27 01:13:47;;;;;;;5.03;4.63;;;13.70;32.30;;;;;;4974442;28;20434;-67
2021/03/27 01:16:20;;;;;;;6.40;5.70;;;13.60;33.00;;;;;;4974911;28;20870;-67
2021/03/27 01:18:50;;;;;;;5.97;5.33;;;13.40;34.50;;;;;;4974216;28;20414;-67
2021/03/27 01:21:26;;;;;;;5.30;4.80;;;13.20;35.90;;;;;;4974699;28;20450;-66
2021/03/27 01:24:03;;;;;;;5.93;5.47;;;13.00;37.20;;;;;;4974647;28;20417;-66
2021/03/27 01:26:50;;;;;;;6.07;5.47;;;13.00;38.20;;;;;;4974646;28;20406;-68
2021/03/27 01:29:37;;;;;;;6.73;5.60;;;12.80;38.50;;;;;;4974284;28;20848;-68
2021/03/27 01:32:20;;;;;;;5.53;5.03;;;12.70;39.20;;;;;;4975032;28;20402;-67
2021/03/27 01:35:11;;;;;;;6.00;5.60;;;12.70;39.60;;;;;;4975366;28;20410;-66
2021/03/27 01:37:53;;;;;;;5.30;4.90;;;12.80;39.30;;;;;;4963811;28;20449;-68
2021/03/27 01:40:28;;;;;;;6.07;5.47;;;12.80;39.40;;;;;;4974051;28;20988;-67
2021/03/27 01:43:19;;;;;;;5.33;4.93;;;12.80;39.20;;;;;;4974558;28;20509;-67
2021/03/27 01:46:09;;;;;;;6.13;5.57;;;12.90;39.10;;;;;;4974508;28;20398;-66
2021/03/27 01:49:06;;;;;;;6.53;6.03;;;12.90;41.00;;;;;;4973873;28;20403;-66
2021/03/27 01:51:43;;;;;;;5.33;4.93;;;12.80;42.00;;;;;;4974788;28;20778;-67
2021/03/27 01:54:12;;;;;;;5.33;4.93;;;12.90;43.00;;;;;;4974607;28;20468;-66
2021/03/27 01:57:02;;;;;;;5.47;4.97;;;12.80;43.80;;;;;;4974836;28;20917;-67
2021/03/27 01:59:35;;;;;;;5.33;4.83;;;12.80;44.10;;;;;;4972529;28;20505;-67
2021/03/27 02:02:33;;;;;;;5.57;5.10;;;12.80;43.50;;;;;;4973023;28;20398;-67
2021/03/27 02:05:05;;;;;;;5.80;5.30;;;12.80;44.20;;;;;;4968185;28;20485;-66
2021/03/27 02:07:43;;;;;;;5.90;5.43;;;12.70;44.00;;;;;;4972666;28;20417;-66
2021/03/27 02:10:17;;;;;;;6.00;5.50;;;12.70;45.40;;;;;;4973330;28;20417;-68
2021/03/27 02:13:02;;;;;;;6.10;5.70;;;12.60;45.50;;;;;;4973110;28;20937;-67
2021/03/27 02:15:52;;;;;;;5.80;5.40;;;12.50;46.40;;;;;;4973223;28;20410;-68
2021/03/27 02:18:42;;;;;;;6.80;5.93;;;12.60;46.80;;;;;;4976779;28;20429;-67
2021/03/27 02:21:26;;;;;;;6.40;5.90;;;12.60;46.30;;;;;;4984114;28;20464;-67
2021/03/27 02:24:30;;;;;;;6.77;6.13;;;12.70;47.10;;;;;;4979046;28;20434;-67
2021/03/27 02:27:06;;;;;;;6.77;5.70;;;12.70;47.00;;;;;;4951577;29;20453;-68
2021/03/27 02:29:51;;;;;;;5.97;5.57;;;12.80;47.60;;;;;;4969817;28;20413;-68
2021/03/27 02:32:36;;;;;;;6.17;5.70;;;12.70;47.20;;;;;;4972877;28;20422;-68
2021/03/27 02:35:14;;;;;;;7.00;6.40;;;12.70;47.70;;;;;;4972800;28;20441;-66
2021/03/27 02:37:46;;;;;;;5.87;5.47;;;12.60;48.50;;;;;;4973108;28;20798;-67
2021/03/27 02:40:20;;;;;;;6.20;5.70;;;12.60;48.90;;;;;;4973808;28;20484;-66
2021/03/27 02:43:19;;;;;;;5.30;4.80;;;12.50;48.30;;;;;;4972908;28;20422;-66
2021/03/27 02:46:02;;;;;;;6.70;6.10;;;12.40;50.50;;;;;;4972470;28;20418;-67
2021/03/27 02:48:56;;;;;;;6.67;6.07;;;12.30;50.90;;;;;;4976757;28;20430;-67
2021/03/27 02:51:37;;;;;;;6.57;6.00;;;12.30;50.80;;;;;;4976267;28;20512;-68
2021/03/27 02:54:21;;;;;;;6.63;6.13;;;11.90;51.10;;;;;;4972708;28;20976;-67
2021/03/27 02:57:13;;;;;;;6.93;6.40;;;11.80;53.00;;;;;;4972911;28;20437;-67
2021/03/27 02:59:56;;;;;;;6.73;6.07;;;11.80;52.70;;;;;;4972816;28;20556;-66
2021/03/27 03:02:46;;;;;;;6.17;5.67;;;11.90;52.40;;;;;;4984671;28;20472;-67
2021/03/27 03:05:22;;;;;;;7.43;6.73;;;12.00;51.10;;;;;;4972296;28;20777;-68
2021/03/27 03:08:03;;;;;;;8.13;6.70;;;11.70;52.50;;;;;;4972089;28;20402;-66
2021/03/27 03:10:35;;;;;;;6.20;5.70;;;12.00;52.40;;;;;;4970929;28;20414;-66
2021/03/27 03:13:15;;;;;;;5.90;5.23;;;11.80;51.70;;;;;;4972590;28;20433;-66
2021/03/27 03:15:52;;;;;;;5.13;4.77;;;11.80;52.00;;;;;;4972664;28;20460;-66
2021/03/27 03:18:28;;;;;;;5.67;5.10;;;11.70;52.90;;;;;;4971628;28;20453;-67
2021/03/27 03:20:58;;;;;;;6.00;5.50;;;11.50;51.70;;;;;;4972194;28;20465;-67
2021/03/27 03:23:37;;;;;;;5.80;5.40;;;11.80;52.30;;;;;;4972090;28;20801;-67
2021/03/27 03:26:27;;;;;;;6.00;5.40;;;11.90;51.70;;;;;;4972199;28;20398;-66
2021/03/27 03:29:26;;;;;;;5.37;4.93;;;11.60;51.00;;;;;;4971352;28;20406;-66
2021/03/27 03:32:33;;;;;;;5.67;5.23;;;11.50;53.30;;;;;;4971531;28;20406;-68
2021/03/27 03:35:20;;;;;;;5.87;5.30;;;11.80;52.20;;;;;;4950355;29;20415;-67
2021/03/27 03:38:07;;;;;;;5.83;5.43;;;11.90;50.80;;;;;;4970425;28;20826;-66
2021/03/27 03:41:10;;;;;;;4.57;4.20;;;11.90;50.90;;;;;;4971926;28;20838;-66
2021/03/27 03:43:55;;;;;;;5.17;4.63;;;12.00;51.40;;;;;;4972081;28;20435;-67
2021/03/27 03:46:40;;;;;;;6.20;5.80;;;12.20;52.80;;;;;;4972261;28;20398;-68
2021/03/27 03:49:32;;;;;;;3.20;2.80;;;12.20;53.30;;;;;;4971338;28;20468;-67
2021/03/27 03:52:29;;;;;;;2.50;2.30;;;11.80;46.70;;;;;;4971825;28;20418;-67
2021/03/27 03:55:19;;;;;;;2.17;2.07;;;11.60;44.90;;;;;;4964893;28;20429;-66
2021/03/27 03:58:00;;;;;;;2.10;2.00;;;11.20;42.00;;;;;;4971458;28;20533;-67
2021/03/27 04:00:32;;;;;;;3.23;1.73;;;11.10;39.80;;;;;;4972057;28;20456;-66
2021/03/27 04:03:25;;;;;;;2.33;1.70;;;11.00;40.80;;;;;;4972361;28;20430;-67
2021/03/27 04:05:59;;;;;;;1.83;1.70;;;10.90;40.30;;;;;;4975551;28;20565;-66
2021/03/27 04:09:02;;;;;;;1.77;1.67;;;11.00;41.10;;;;;;4975317;28;20412;-68
2021/03/27 04:12:06;;;;;;;1.40;1.40;;;11.10;41.30;;;;;;4976129;28;20413;-66
2021/03/27 04:14:35;;;;;;;1.83;1.73;;;11.10;41.80;;;;;;4975566;28;20925;-66
2021/03/27 04:17:13;;;;;;;2.00;1.80;;;11.20;41.50;;;;;;4975341;28;20937;-66
2021/03/27 04:19:44;;;;;;;1.90;1.73;;;10.90;40.90;;;;;;4975204;28;20508;-66
2021/03/27 04:22:14;;;;;;;2.00;1.90;;;11.00;41.30;;;;;;4974956;28;20449;-66
2021/03/27 04:25:15;;;;;;;1.60;1.50;;;11.00;40.90;;;;;;4974929;28;20442;-66
2021/03/27 04:28:02;;;;;;;1.37;1.27;;;11.00;40.50;;;;;;4974612;28;20426;-66
2021/03/27 04:30:56;;;;;;;1.93;1.47;;;11.00;39.40;;;;;;4974895;28;20898;-65
2021/03/27 04:33:49;;;;;;;1.30;1.30;;;10.90;38.80;;;;;;4971028;28;20980;-66
2021/03/27 04:36:18;;;;;;;1.57;1.50;;;11.00;38.00;;;;;;4975241;28;20410;-66
2021/03/27 04:38:54;;;;;;;2.80;1.53;;;11.10;37.00;;;;;;4973873;28;20838;-66
2021/03/27 04:41:40;;;;;;;2.03;1.37;;;11.10;37.70;;;;;;4974533;28;20484;-68
2021/03/27 04:44:17;;;;;;;1.20;1.20;;;11.00;38.20;;;;;;4974691;28;20441;-66
2021/03/27 04:47:11;;;;;;;1.23;1.10;;;11.10;37.90;;;;;;4974451;28;20764;-67
2021/03/27 04:49:41;;;;;;;1.20;1.20;;;11.00;37.30;;;;;;4970608;28;20534;-67
2021/03/27 04:52:10;;;;;;;1.60;1.37;;;11.10;39.10;;;;;;4974231;28;20445;-68
2021/03/27 04:54:38;;;;;;;1.30;1.30;;;11.00;37.70;;;;;;4974336;28;20415;-68
2021/03/27 04:57:16;;;;;;;1.20;1.20;;;11.00;37.20;;;;;;4973734;28;20403;-69
2021/03/27 05:00:09;;;;;;;1.20;1.20;;;10.90;36.30;;;;;;4973788;28;21097;-65
2021/03/27 05:02:47;;;;;;;1.37;1.00;;;10.60;37.60;;;;;;4974175;28;20848;-66
2021/03/27 05:05:22;;;;;;;1.50;1.50;;;10.30;37.60;;;;;;4974241;28;20504;-67
2021/03/27 05:08:09;;;;;;;1.50;1.40;;;10.40;37.80;;;;;;4973788;28;20533;-66
2021/03/27 05:10:39;;;;;;;1.40;1.27;;;10.50;37.90;;;;;;4974055;28;20420;-65
2021/03/27 05:13:16;;;;;;;0.97;0.97;;;10.40;36.80;;;;;;4974045;28;20848;-65
2021/03/27 05:16:04;;;;;;;1.60;1.50;;;10.50;36.90;;;;;;4973802;28;20418;-67
2021/03/27 05:19:03;;;;;;;1.30;1.30;;;10.50;36.20;;;;;;4973401;28;20418;-65
2021/03/27 05:21:37;;;;;;;1.37;1.37;;;10.60;37.60;;;;;;4973890;28;20468;-66
2021/03/27 05:24:32;;;;;;;1.30;1.20;;;10.40;37.40;;;;;;4973668;28;20464;-66
2021/03/27 05:27:25;;;;;;;1.50;1.40;;;10.50;37.20;;;;;;4973503;28;20456;-65
2021/03/27 05:30:02;;;;;;;1.17;1.17;;;10.50;37.00;;;;;;4973501;28;20406;-66
2021/03/27 05:32:30;;;;;;;1.30;1.30;;;10.20;37.80;;;;;;4973498;28;20426;-66
2021/03/27 05:35:06;;;;;;;1.57;1.47;;;10.20;37.50;;;;;;4973485;28;20423;-67
2021/03/27 05:37:54;;;;;;;1.87;1.17;;;10.30;38.10;;;;;;4972581;28;20433;-66
2021/03/27 05:40:25;;;;;;;1.23;1.13;;;10.20;38.00;;;;;;4973084;28;21002;-67
2021/03/27 05:43:09;;;;;;;1.57;1.57;;;10.30;38.30;;;;;;4973239;28;20502;-66
2021/03/27 05:46:07;;;;;;;1.00;1.00;;;10.30;36.80;;;;;;4973298;28;20501;-66
2021/03/27 05:48:49;;;;;;;1.27;1.27;;;10.30;37.50;;;;;;4971270;28;20422;-67
2021/03/27 05:51:59;;;;;;;1.20;1.20;;;10.20;37.80;;;;;;4973392;28;20409;-66
2021/03/27 05:54:43;;;;;;;1.53;1.43;;;10.10;37.50;;;;;;4973232;28;20421;-66
2021/03/27 05:57:30;;;;;;;1.40;1.40;;;10.30;36.50;;;;;;4972719;28;20406;-66
2021/03/27 06:00:04;;;;;;;1.13;1.13;;;10.40;36.60;;;;;;4972948;28;20540;-67
2021/03/27 06:02:56;;;;;;;2.93;1.20;;;10.00;35.60;;;;;;4972748;28;20433;-66
2021/03/27 06:05:45;;;;;;;1.40;1.30;;;10.00;35.40;;;;;;4972971;28;20902;-66
2021/03/27 06:08:26;;;;;;;2.13;1.40;;;10.10;35.60;;;;;;4972409;28;20795;-67
2021/03/27 06:11:15;;;;;;;1.10;1.10;;;10.20;34.50;;;;;;4972682;28;20578;-66
2021/03/27 06:14:10;;;;;;;1.27;1.20;;;10.00;34.60;;;;;;4973244;28;20446;-67
2021/03/27 06:17:13;;;;;;;1.60;1.00;;;9.80;35.60;;;;;;4972736;28;20414;-66
2021/03/27 06:19:57;;;;;;;1.20;1.10;;;9.80;34.60;;;;;;4972481;28;20468;-65
2021/03/27 06:22:47;;;;;;;2.20;2.10;;;9.90;33.90;;;;;;4972500;28;20426;-65
2021/03/27 06:25:32;;;;;;;1.47;1.37;;;10.10;33.60;;;;;;4972593;28;20411;-65
2021/03/27 06:28:23;;;;;;;1.50;1.40;;;10.10;33.70;;;;;;4971758;28;20489;-65
2021/03/27 06:31:08;;;;;;;2.10;1.40;;;10.10;33.80;;;;;;4962207;28;20414;-65
2021/03/27 06:33:57;;;;;;;2.77;1.50;;;10.00;33.10;;;;;;4971630;28;20783;-68
2021/03/27 06:36:53;;;;;;;1.57;1.47;;;10.00;34.40;;;;;;4972551;28;20415;-66
2021/03/27 06:39:33;;;;;;;1.97;1.83;;;9.70;36.40;;;;;;4971313;28;20429;-65
2021/03/27 06:42:18;;;;;;;1.57;1.47;;;9.90;34.80;;;;;;4972357;28;20996;-66
2021/03/27 06:45:10;;;;;;;1.67;1.43;;;9.80;34.20;;;;;;4972459;28;20417;-66
2021/03/27 06:47:57;;;;;;;3.30;1.57;;;9.70;34.80;;;;;;4972083;28;20452;-66
2021/03/27 06:50:34;;;;;;;1.30;1.20;;;9.60;35.60;;;;;;4972357;28;20501;-67
2021/03/27 06:53:24;;;;;;;1.60;1.50;;;9.80;35.50;;;;;;4972707;28;20429;-67
2021/03/27 06:56:02;;;;;;;1.90;1.30;;;9.80;34.30;;;;;;4972722;28;20485;-68
2021/03/27 06:59:01;;;;;;;2.93;1.63;;;9.80;33.90;;;;;;4972101;28;20402;-67
2021/03/27 07:01:54;;;;;;;1.33;1.10;;;9.70;34.90;;;;;;4972654;28;20493;-65
2021/03/27 07:04:39;;;;;;;1.70;1.60;;;10.00;33.20;;;;;;4972509;28;20406;-66
2021/03/27 07:07:24;;;;;;;1.53;1.20;;;10.20;32.80;;;;;;4972008;28;20453;-70
2021/03/27 07:10:23;;;;;;;3.17;1.33;;;10.30;30.00;;;;;;4972258;28;20413;-66
2021/03/27 07:13:10;;;;;;;1.50;1.40;;;10.30;30.50;;;;;;4971969;28;20434;-67
2021/03/27 07:15:47;;;;;;;1.50;1.40;;;10.10;28.40;;;;;;4972380;28;20900;-67
2021/03/27 07:18:34;;;;;;;2.17;1.53;;;10.20;27.30;;;;;;4972002;28;20670;-67
2021/03/27 07:21:41;;;;;;;2.20;1.87;;;10.10;27.20;;;;;;4972089;28;20498;-68
2021/03/27 07:24:23;;;;;;;1.67;1.17;;;10.20;26.70;;;;;;4971599;28;20442;-68
2021/03/27 07:27:10;;;;;;;1.40;1.30;;;10.00;26.90;;;;;;4972209;28;20438;-68
2021/03/27 07:30:16;;;;;;;2.30;1.30;;;9.70;27.50;;;;;;4975004;28;20421;-65
2021/03/27 07:33:05;;;;;;;1.50;1.40;;;9.90;27.80;;;;;;4984646;28;20444;-67
2021/03/27 07:36:17;;;;;;;1.37;1.20;;;10.00;26.60;;;;;;4973623;28;20417;-67
2021/03/27 07:38:59;;;;;;;2.10;1.60;;;9.80;27.00;;;;;;4984584;28;20798;-68
2021/03/27 07:41:54;;;;;;;3.60;1.83;;;10.00;26.50;;;;;;4995056;28;20491;-68
2021/03/27 07:44:48;;;;;;;3.70;1.73;;;10.10;26.50;;;;;;4986572;28;20489;-67
2021/03/27 07:47:44;;;;;;;1.10;1.10;;;10.30;26.20;;;;;;4992088;28;20860;-68
2021/03/27 07:50:35;;;;;;;2.30;1.33;;;10.10;25.20;;;;;;4988828;28;20425;-67
2021/03/27 07:53:23;;;;;;;1.57;1.40;;;10.20;26.80;;;;;;4975242;28;20445;-66
2021/03/27 07:56:16;;;;;;;1.87;1.50;;;10.30;26.70;;;;;;4975541;28;20409;-67
2021/03/27 07:59:19;;;;;;;3.60;1.50;;;10.10;25.60;;;;;;4974514;28;20448;-67
2021/03/27 08:02:08;;;;;;;2.23;1.10;;;10.00;25.50;;;;;;4974204;28;20844;-68
2021/03/27 08:05:03;;;;;;;1.47;1.33;;;10.00;26.50;;;;;;4975324;28;20436;-65
2021/03/27 08:07:55;;;;;;;1.30;1.20;;;11.20;30.60;;;;;;4974827;28;20920;-67
2021/03/27 08:10:31;;;;;;;3.90;1.83;;;12.00;28.10;;;;;;4976630;28;20425;-68
2021/03/27 08:13:00;;;;;;;4.53;2.00;;;12.20;24.70;;;;;;4984287;28;20464;-68
2021/03/27 08:15:53;;;;;;;2.73;1.43;;;12.80;29.30;;;;;;4976117;28;20418;-66
2021/03/27 08:18:58;;;;;;;1.50;1.37;;;12.20;24.00;;;;;;4974592;28;20414;-70
2021/03/27 08:22:00;;;;;;;2.43;1.40;;;11.40;24.60;;;;;;4974778;28;20469;-65
2021/03/27 08:24:38;;;;;;;3.67;1.63;;;11.20;25.20;;;;;;4974612;28;20404;-71
2021/03/27 08:27:55;;;;;;;7.50;1.60;;;11.10;25.70;;;;;;4981289;28;20410;-71
2021/03/27 08:30:32;;;;;;;1.57;1.00;;;11.10;24.10;;;;;;4963827;28;20450;-66
2021/03/27 08:33:35;;;;;;;4.00;1.67;;;10.80;25.80;;;;;;4994013;28;20554;-67
2021/03/27 08:36:32;;;;;;;1.57;1.47;;;10.60;24.80;;;;;;4994018;28;20448;-67
2021/03/27 08:39:35;;;;;;;2.30;1.33;;;10.80;23.80;;;;;;4993357;28;20456;-69
2021/03/27 08:42:21;;;;;;;2.10;1.00;;;10.70;24.40;;;;;;4974369;28;20418;-69
2021/03/27 08:45:08;;;;;;;2.10;1.03;;;10.70;23.80;;;;;;4974376;28;20434;-69
2021/03/27 08:47:43;;;;;;;2.90;1.57;;;10.50;21.80;;;;;;4973750;28;20929;-68
2021/03/27 08:50:20;;;;;;;3.07;1.43;;;10.60;21.80;;;;;;4972433;28;20434;-67
2021/03/27 08:53:33;;;;;;;5.27;1.80;;;10.60;23.10;;;;;;4974172;28;20417;-66
2021/03/27 08:56:40;;;;;;;1.20;1.10;;;10.70;21.30;;;;;;4974403;28;20406;-65
2021/03/27 08:59:35;;;;;;;2.13;1.40;;;10.80;20.90;;;;;;4974191;28;20444;-65
2021/03/27 09:02:22;;;;;;;1.30;1.17;;;10.70;21.50;;;;;;4990872;28;20432;-65
2021/03/27 09:05:13;;;;;;;2.27;1.17;;;10.80;20.70;;;;;;4987348;28;20496;-66
2021/03/27 09:08:17;;;;;;;1.40;1.30;;;11.00;20.20;;;;;;4982276;28;20434;-66
2021/03/27 09:11:12;;;;;;;0.90;0.90;;;11.20;18.90;;;;;;4972755;28;20413;-71
2021/03/27 09:13:59;;;;;;;4.13;1.50;;;10.80;19.30;;;;;;4986120;28;20433;-67
2021/03/27 09:16:54;;;;;;;1.03;1.03;;;11.10;20.10;;;;;;4977083;28;20922;-66
2021/03/27 09:19:29;;;;;;;4.00;1.00;;;11.00;20.50;;;;;;4972371;28;20445;-68
2021/03/27 09:22:16;;;;;;;1.83;1.00;;;11.00;19.00;;;;;;4973674;28;20449;-69
2021/03/27 09:24:47;;;;;;;1.10;1.10;;;11.00;19.40;;;;;;4973506;28;20414;-66
2021/03/27 09:27:36;;;;;;;1.67;1.10;;;11.10;20.80;;;;;;4972590;28;20779;-67
2021/03/27 09:30:35;;;;;;;1.27;1.00;;;11.10;19.70;;;;;;4985693;28;20413;-66
2021/03/27 09:33:12;;;;;;;1.07;1.07;;;11.20;19.00;;;;;;4992274;28;20525;-68
2021/03/27 09:35:52;;;;;;;3.43;1.10;;;11.10;19.90;;;;;;4993167;28;20456;-66
2021/03/27 09:38:43;;;;;;;1.33;1.20;;;10.80;19.70;;;;;;4992473;28;20497;-67
2021/03/27 09:41:35;;;;;;;1.00;0.80;;;11.10;20.10;;;;;;4990002;28;20583;-66
2021/03/27 09:44:05;;;;;;;1.63;1.23;;;11.20;19.70;;;;;;4973388;28;21065;-67
2021/03/27 09:47:01;;;;;;;3.70;1.10;;;11.20;18.90;;;;;;4986086;28;20432;-68
2021/03/27 09:49:32;;;;;;;2.00;1.50;;;11.30;18.70;;;;;;4984334;28;20424;-66
2021/03/27 09:52:25;;;;;;;1.53;1.20;;;11.60;17.80;;;;;;4971938;28;20402;-66
2021/03/27 09:55:15;;;;;;;2.40;1.30;;;11.30;19.20;;;;;;4972888;28;20433;-66
2021/03/27 09:58:01;;;;;;;1.30;1.30;;;11.50;18.00;;;;;;4972608;28;20466;-66
2021/03/27 10:00:48;;;;;;;1.30;1.20;;;11.60;17.60;;;;;;4972868;28;20458;-66
2021/03/27 10:03:35;;;;;;;1.40;1.30;;;11.70;17.70;;;;;;4979593;28;20446;-69
2021/03/27 10:06:07;;;;;;;2.40;1.33;;;12.00;17.30;;;;;;4985781;28;20585;-66
2021/03/27 10:09:16;;;;;;;1.57;1.20;;;12.30;17.40;;;;;;4991733;28;20885;-65
2021/03/27 10:11:43;;;;;;;2.30;1.10;;;12.60;16.30;;;;;;4988851;28;20433;-66
2021/03/27 10:14:11;;;;;;;2.93;1.23;;;12.60;16.10;;;;;;4992129;28;20435;-66
2021/03/27 10:17:04;;;;;;;5.20;2.60;;;12.60;15.10;;;;;;4975006;28;20422;-67
2021/03/27 10:19:47;;;;;;;1.20;1.10;;;12.40;14.80;;;;;;4971774;28;20414;-67
2021/03/27 10:22:18;;;;;;;1.33;1.30;;;12.40;14.70;;;;;;4973066;28;20442;-67
2021/03/27 10:24:57;;;;;;;1.63;1.30;;;12.50;14.80;;;;;;4972213;28;20417;-72
2021/03/27 10:27:51;;;;;;;2.47;1.10;;;12.70;15.40;;;;;;4972733;28;20394;-67
2021/03/27 10:30:19;;;;;;;1.10;1.00;;;12.80;14.30;;;;;;4971924;28;20497;-68
2021/03/27 10:32:55;;;;;;;2.77;1.13;;;13.00;14.60;;;;;;4971287;28;20417;-67
2021/03/27 10:35:45;;;;;;;2.00;1.10;;;12.80;14.60;;;;;;4972592;28;20459;-67
2021/03/27 10:38:51;;;;;;;13.30;3.70;;;13.10;15.90;;;;;;4972328;28;20793;-67
2021/03/27 10:41:16;;;;;;;1.60;1.23;;;12.80;14.90;;;;;;4972193;28;20943;-68
2021/03/27 10:44:08;;;;;;;0.90;0.90;;;12.70;15.50;;;;;;4972725;28;20553;-67
2021/03/27 10:46:54;;;;;;;1.60;1.27;;;12.80;15.30;;;;;;4973369;28;20354;-70
2021/03/27 10:49:48;;;;;;;2.03;1.00;;;12.80;15.90;;;;;;4974595;28;20469;-67
2021/03/27 10:52:32;;;;;;;1.17;1.10;;;12.80;14.80;;;;;;4990820;28;20974;-67
2021/03/27 10:55:33;;;;;;;1.47;1.10;;;12.70;14.90;;;;;;4991468;28;20843;-67
2021/03/27 10:58:29;;;;;;;2.30;1.47;;;12.30;14.20;;;;;;4991523;28;20413;-69
2021/03/27 11:01:36;;;;;;;1.07;1.07;;;12.00;15.30;;;;;;4991921;28;20970;-68
2021/03/27 11:04:20;;;;;;;5.30;1.23;;;11.90;15.40;;;;;;4982944;28;20962;-67
2021/03/27 11:07:15;;;;;;;2.40;1.10;;;11.80;15.80;;;;;;4978314;28;20424;-67
2021/03/27 11:10:18;;;;;;;1.10;1.10;;;11.90;15.60;;;;;;4980938;28;20517;-68
2021/03/27 11:12:59;;;;;;;1.47;1.37;;;12.10;15.40;;;;;;4972072;28;20430;-67
2021/03/27 11:16:02;;;;;;;1.50;1.40;;;12.30;14.90;;;;;;4976084;28;20417;-65
2021/03/27 11:18:52;;;;;;;1.90;1.40;;;12.40;15.20;;;;;;4974538;28;20881;-67
2021/03/27 11:21:51;;;;;;;1.87;1.43;;;12.40;14.90;;;;;;4975711;28;21044;-65
2021/03/27 11:24:48;;;;;;;3.60;1.87;;;12.30;15.30;;;;;;4975066;28;20850;-65
2021/03/27 11:27:41;;;;;;;12.13;1.60;;;12.40;15.10;;;;;;4975222;28;20417;-67
2021/03/27 11:30:31;;;;;;;1.90;1.37;;;12.40;15.20;;;;;;4975674;28;20897;-66
2021/03/27 11:33:05;;;;;;;1.30;1.20;;;12.30;15.70;;;;;;4974993;28;20865;-68
2021/03/27 11:35:36;;;;;;;1.30;1.20;;;12.30;14.80;;;;;;4976080;28;20500;-67
2021/03/27 11:38:39;;;;;;;3.57;1.37;;;12.20;15.70;;;;;;4975175;28;20880;-67
2021/03/27 11:41:05;;;;;;;1.07;0.90;;;12.10;14.90;;;;;;4979042;28;20487;-66
2021/03/27 11:44:07;;;;;;;1.40;1.30;;;12.10;16.00;;;;;;4993832;28;20417;-67
2021/03/27 11:47:25;;;;;;;1.60;1.50;;;12.20;15.50;;;;;;4994173;28;20242;-68
2021/03/27 11:50:10;;;;;;;1.43;1.33;;;12.20;16.40;;;;;;4981046;28;20908;-67
2021/03/27 11:53:01;;;;;;;5.53;1.70;;;12.10;16.00;;;;;;4994462;28;20796;-68
2021/03/27 11:55:58;;;;;;;1.57;1.40;;;11.90;16.10;;;;;;4978766;28;20440;-67
2021/03/27 11:58:35;;;;;;;1.40;1.33;;;12.00;15.80;;;;;;4989994;28;20425;-67
2021/03/27 12:01:08;;;;;;;1.43;1.10;;;11.90;16.20;;;;;;4987019;28;20823;-67
2021/03/27 12:03:48;;;;;;;1.13;1.07;;;12.20;15.90;;;;;;4986075;28;20466;-67
2021/03/27 12:06:38;;;;;;;1.50;1.40;;;12.00;15.60;;;;;;4975050;28;20441;-66
2021/03/27 12:09:27;;;;;;;1.53;1.40;;;12.10;16.60;;;;;;4973286;28;20500;-67
2021/03/27 12:11:59;;;;;;;1.93;1.83;;;12.10;16.30;;;;;;4975853;28;20429;-68
2021/03/27 12:14:54;;;;;;;1.53;1.40;;;12.10;16.40;;;;;;4975377;28;20422;-68
2021/03/27 12:17:31;;;;;;;1.40;1.30;;;12.00;16.60;;;;;;4988062;28;20428;-67
2021/03/27 12:20:11;;;;;;;2.93;1.80;;;11.90;16.20;;;;;;4983316;28;20413;-66
2021/03/27 12:22:44;;;;;;;1.63;1.40;;;11.80;16.30;;;;;;4974825;28;20934;-67
2021/03/27 12:25:28;;;;;;;3.37;1.63;;;12.00;16.30;;;;;;4989111;28;20920;-67
2021/03/27 12:28:25;;;;;;;3.97;1.60;;;12.10;16.30;;;;;;4990217;28;21016;-65
2021/03/27 12:31:12;;;;;;;1.80;1.70;;;11.90;16.20;;;;;;4984648;28;20468;-66
2021/03/27 12:33:43;;;;;;;2.93;2.00;;;12.00;16.50;;;;;;4975787;28;20504;-63
2021/03/27 12:36:23;;;;;;;6.23;1.27;;;12.10;17.30;;;;;;4971159;28;20446;-68
2021/03/27 12:39:10;;;;;;;1.80;1.30;;;12.20;16.90;;;;;;4983635;28;20518;-67
2021/03/27 12:41:53;;;;;;;1.90;1.30;;;12.40;16.60;;;;;;4976816;28;20541;-69
2021/03/27 12:44:37;;;;;;;1.30;1.23;;;12.60;16.70;;;;;;4992219;28;20416;-68
2021/03/27 12:47:36;;;;;;;3.03;1.60;;;12.70;15.80;;;;;;4991845;28;20830;-67
2021/03/27 12:50:08;;;;;;;4.60;1.30;;;12.70;15.40;;;;;;4992483;28;20405;-70
2021/03/27 12:52:41;;;;;;;1.53;1.23;;;12.70;15.50;;;;;;4992809;28;20437;-65
2021/03/27 12:55:24;;;;;;;2.93;1.27;;;12.60;15.30;;;;;;4985432;28;20444;-67
2021/03/27 12:58:31;;;;;;;2.00;1.60;;;12.50;14.40;;;;;;4981347;28;20792;-68
2021/03/27 13:01:07;;;;;;;2.73;1.47;;;12.40;15.90;;;;;;4970115;28;20484;-68
2021/03/27 13:04:08;;;;;;;1.77;1.67;;;12.30;14.40;;;;;;4983837;28;20432;-66
2021/03/27 13:06:34;;;;;;;1.90;1.10;;;12.30;14.80;;;;;;4982405;28;20957;-67
2021/03/27 13:09:11;;;;;;;2.27;1.63;;;12.30;15.20;;;;;;4981526;28;20432;-65
2021/03/27 13:11:49;;;;;;;3.40;2.37;;;12.40;14.70;;;;;;4991940;28;20170;-67
2021/03/27 13:14:58;;;;;;;2.60;2.03;;;12.60;14.50;;;;;;4992295;28;20428;-65
2021/03/27 13:17:33;;;;;;;2.00;1.27;;;12.70;14.20;;;;;;4991155;28;20788;-68
2021/03/27 13:20:11;;;;;;;2.63;1.60;;;12.60;15.10;;;;;;4991344;28;20409;-65
2021/03/27 13:22:49;;;;;;;3.30;1.33;;;12.70;14.70;;;;;;4991523;28;20932;-66
2021/03/27 13:25:33;;;;;;;2.40;1.80;;;13.00;14.80;;;;;;4992072;28;20416;-67
2021/03/27 13:28:25;;;;;;;2.73;1.30;;;13.10;15.20;;;;;;4991097;28;20916;-66
2021/03/27 13:30:59;;;;;;;3.50;1.30;;;13.20;14.50;;;;;;4990143;28;20440;-68
2021/03/27 13:33:43;;;;;;;1.60;1.50;;;13.00;14.00;;;;;;4991728;28;20448;-68
2021/03/27 13:36:17;;;;;;;1.30;1.20;;;12.80;14.10;;;;;;4991095;28;20459;-66
2021/03/27 13:38:56;;;;;;;4.50;2.10;;;12.90;14.90;;;;;;4990522;28;20436;-65
2021/03/27 13:41:37;;;;;;;1.80;1.70;;;12.80;15.50;;;;;;4991922;28;20473;-67
2021/03/27 13:44:24;;;;;;;1.47;1.30;;;12.70;14.00;;;;;;4991649;28;20441;-66
2021/03/27 13:47:07;;;;;;;4.13;1.37;;;12.60;13.70;;;;;;4971567;28;20414;-68
2021/03/27 13:49:49;;;;;;;1.90;1.00;;;12.60;14.20;;;;;;4988200;28;20908;-67
2021/03/27 13:52:29;;;;;;;2.30;1.23;;;12.50;15.30;;;;;;4990866;28;20449;-66
2021/03/27 13:55:42;;;;;;;1.80;1.47;;;12.60;14.80;;;;;;4991512;28;21136;-67
2021/03/27 13:58:24;;;;;;;2.30;1.60;;;12.60;15.30;;;;;;4990537;28;20441;-67
2021/03/27 14:01:13;;;;;;;1.80;1.70;;;12.70;14.70;;;;;;4988778;28;20457;-65
2021/03/27 14:03:50;;;;;;;3.00;1.47;;;12.70;14.50;;;;;;4989382;28;20526;-67
2021/03/27 14:06:23;;;;;;;1.63;1.53;;;12.40;15.60;;;;;;4980770;28;20437;-65
2021/03/27 14:09:02;;;;;;;1.40;1.30;;;12.60;16.30;;;;;;4982498;28;20476;-66
2021/03/27 14:11:50;;;;;;;4.87;1.50;;;12.70;14.80;;;;;;4972061;28;20548;-66
2021/03/27 14:14:21;;;;;;;3.10;1.60;;;12.90;15.20;;;;;;4983853;28;20425;-66
2021/03/27 14:17:07;;;;;;;3.97;1.70;;;12.90;14.90;;;;;;4991324;28;20449;-65
2021/03/27 14:19:53;;;;;;;2.90;2.07;;;13.00;14.50;;;;;;4982359;28;20802;-64